Time;durP1;ratioP1;P1;durP2;ratioP2;P2;SDS_P1;SDS_P2;PMS_P1;PMS_P2;Temp;Humidity;BMP_temperature;BMP_pressure;BME280_temperature;BME280_humidity;BME280_pressure;Samples;Min_cycle;Max_cycle;Signal;HPM_P1;HPM_P2
2022/09/14 00:01:37;;;;;;;9.32;2.30;;;;;;;;;;5070638;28;20044;-62
2022/09/14 00:04:05;;;;;;;6.30;2.28;;;;;;;;;;5070663;28;20048;-62
2022/09/14 00:06:31;;;;;;;3.40;2.15;;;;;;;;;;5070022;28;20040;-62
2022/09/14 00:08:59;;;;;;;4.38;2.10;;;;;;;;;;5070298;28;20110;-62
2022/09/14 00:11:26;;;;;;;3.75;2.30;;;;;;;;;;5070658;28;20076;-62
2022/09/14 00:13:52;;;;;;;4.53;2.45;;;;;;;;;;5070322;28;20467;-62
2022/09/14 00:16:20;;;;;;;7.15;2.20;;;;;;;;;;5070741;28;20378;-62
2022/09/14 00:18:50;;;;;;;6.07;2.58;;;;;;;;;;5070679;28;20123;-62
2022/09/14 00:21:16;;;;;;;5.00;2.00;;;;;;;;;;5070183;28;20045;-62
2022/09/14 00:23:42;;;;;;;7.43;2.40;;;;;;;;;;5070236;28;20048;-62
2022/09/14 00:26:10;;;;;;;7.57;2.30;;;;;;;;;;5070442;28;20542;-62
2022/09/14 00:28:37;;;;;;;5.20;2.22;;;;;;;;;;5070125;28;20483;-62
2022/09/14 00:31:04;;;;;;;4.22;2.10;;;;;;;;;;5070106;28;20040;-62
2022/09/14 00:33:30;;;;;;;5.75;2.50;;;;;;;;;;5070444;28;20036;-62
2022/09/14 00:35:56;;;;;;;3.75;2.58;;;;;;;;;;5070105;28;20123;-62
2022/09/14 00:38:22;;;;;;;5.65;2.38;;;;;;;;;;5070217;28;20487;-62
2022/09/14 00:40:57;;;;;;;4.03;2.67;;;;;;;;;;5070104;28;20041;-62
2022/09/14 00:43:23;;;;;;;8.65;3.00;;;;;;;;;;5070046;28;20574;-62
2022/09/14 00:45:50;;;;;;;3.78;2.22;;;;;;;;;;5070381;28;20537;-62
2022/09/14 00:48:16;;;;;;;7.47;2.53;;;;;;;;;;5070243;28;20487;-62
2022/09/14 00:50:43;;;;;;;4.22;2.15;;;;;;;;;;5069952;28;20115;-62
2022/09/14 00:53:09;;;;;;;10.23;2.72;;;;;;;;;;5070322;28;20498;-62
2022/09/14 00:55:35;;;;;;;3.83;2.72;;;;;;;;;;5069979;28;20044;-62
2022/09/14 00:58:01;;;;;;;4.78;2.60;;;;;;;;;;5069807;28;20055;-62
2022/09/14 01:00:29;;;;;;;8.63;2.28;;;;;;;;;;5070278;28;20048;-62
2022/09/14 01:02:55;;;;;;;8.80;2.53;;;;;;;;;;5070109;28;20041;-62
2022/09/14 01:05:27;;;;;;;7.57;2.40;;;;;;;;;;5069549;28;20037;-62
2022/09/14 01:08:17;;;;;;;10.07;3.07;;;;;;;;;;5069933;28;20037;-62
2022/09/14 01:10:46;;;;;;;9.20;3.20;;;;;;;;;;5069716;28;20056;-62
2022/09/14 01:13:19;;;;;;;6.60;2.40;;;;;;;;;;5069728;28;20040;-62
2022/09/14 01:15:54;;;;;;;7.70;2.83;;;;;;;;;;5069914;28;20072;-62
2022/09/14 01:18:20;;;;;;;8.13;3.00;;;;;;;;;;5073637;28;20041;-62
2022/09/14 01:21:01;;;;;;;7.20;3.03;;;;;;;;;;5073179;28;20043;-62
2022/09/14 01:23:42;;;;;;;5.57;2.60;;;;;;;;;;5073756;28;20032;-62
2022/09/14 01:26:21;;;;;;;4.25;2.38;;;;;;;;;;5072970;28;20044;-62
2022/09/14 01:28:51;;;;;;;5.03;2.42;;;;;;;;;;5072220;28;20043;-62
2022/09/14 01:31:38;;;;;;;4.28;2.10;;;;;;;;;;5073249;28;20049;-62
2022/09/14 01:34:13;;;;;;;5.60;2.28;;;;;;;;;;5072375;28;20090;-62
2022/09/14 01:36:42;;;;;;;4.45;2.50;;;;;;;;;;5072730;28;20582;-62
2022/09/14 01:39:09;;;;;;;4.07;2.72;;;;;;;;;;5072693;28;20044;-62
2022/09/14 01:41:36;;;;;;;8.13;2.67;;;;;;;;;;5072423;28;20128;-62
2022/09/14 01:44:10;;;;;;;6.45;2.70;;;;;;;;;;5072818;28;20124;-62
2022/09/14 01:46:42;;;;;;;5.10;2.67;;;;;;;;;;5073094;28;20419;-62
2022/09/14 01:49:15;;;;;;;4.32;2.80;;;;;;;;;;5072731;28;20509;-62
2022/09/14 01:51:41;;;;;;;9.30;3.17;;;;;;;;;;5073159;28;20513;-62
2022/09/14 01:54:12;;;;;;;9.45;2.83;;;;;;;;;;5073224;28;20040;-62
2022/09/14 01:56:41;;;;;;;5.57;2.78;;;;;;;;;;5072412;28;20037;-62
2022/09/14 01:59:07;;;;;;;7.07;2.70;;;;;;;;;;5073000;28;20533;-62
2022/09/14 02:01:40;;;;;;;5.00;2.65;;;;;;;;;;5072976;28;20041;-62
2022/09/14 02:04:10;;;;;;;7.85;2.75;;;;;;;;;;5072595;28;20513;-62
2022/09/14 02:06:40;;;;;;;8.23;2.83;;;;;;;;;;5072887;28;20119;-62
2022/09/14 02:09:08;;;;;;;6.90;2.78;;;;;;;;;;5072396;28;20060;-62
2022/09/14 02:11:34;;;;;;;6.90;3.00;;;;;;;;;;5072523;28;20040;-62
2022/09/14 02:14:00;;;;;;;5.00;2.50;;;;;;;;;;5072433;28;20051;-62
2022/09/14 02:16:26;;;;;;;8.00;3.20;;;;;;;;;;5072347;28;20119;-62
2022/09/14 02:18:53;;;;;;;5.18;2.65;;;;;;;;;;5072139;28;20042;-62
2022/09/14 02:21:27;;;;;;;5.00;2.72;;;;;;;;;;5072442;28;20056;-62
2022/09/14 02:23:53;;;;;;;5.90;2.78;;;;;;;;;;5072484;28;20040;-62
2022/09/14 02:26:20;;;;;;;4.63;2.70;;;;;;;;;;5072009;28;20052;-62
2022/09/14 02:28:46;;;;;;;7.30;3.08;;;;;;;;;;5072377;28;20041;-62
2022/09/14 02:31:33;;;;;;;11.68;2.85;;;;;;;;;;5072183;28;20117;-62
2022/09/14 02:33:59;;;;;;;4.95;3.17;;;;;;;;;;5071496;28;20467;-62
2022/09/14 02:36:25;;;;;;;5.45;2.63;;;;;;;;;;5072064;28;20099;-62
2022/09/14 02:39:02;;;;;;;5.10;3.40;;;;;;;;;;5072200;28;20048;-62
2022/09/14 02:41:36;;;;;;;6.15;2.83;;;;;;;;;;5071741;28;20040;-62
2022/09/14 02:44:20;;;;;;;4.78;3.15;;;;;;;;;;5072108;28;20081;-62
2022/09/14 02:46:52;;;;;;;5.32;3.10;;;;;;;;;;5071707;28;20048;-62
2022/09/14 02:49:37;;;;;;;5.45;2.83;;;;;;;;;;5071250;28;20045;-62
2022/09/14 02:52:11;;;;;;;6.43;3.40;;;;;;;;;;5071819;28;20044;-62
2022/09/14 02:54:41;;;;;;;6.50;3.17;;;;;;;;;;5072018;28;20046;-62
2022/09/14 02:57:07;;;;;;;5.32;2.78;;;;;;;;;;5071497;28;20033;-62
2022/09/14 02:59:33;;;;;;;6.13;3.05;;;;;;;;;;5071725;28;20039;-62
2022/09/14 03:02:00;;;;;;;5.50;3.08;;;;;;;;;;5071708;28;20048;-62
2022/09/14 03:04:26;;;;;;;8.02;3.20;;;;;;;;;;5071262;28;20052;-62
2022/09/14 03:06:53;;;;;;;8.75;2.78;;;;;;;;;;5071421;28;20044;-62
2022/09/14 03:09:19;;;;;;;4.97;3.03;;;;;;;;;;5071136;28;20056;-62
2022/09/14 03:11:45;;;;;;;6.60;3.38;;;;;;;;;;5071005;28;20694;-62
2022/09/14 03:14:11;;;;;;;5.25;3.20;;;;;;;;;;5071189;28;20044;-62
2022/09/14 03:16:37;;;;;;;6.55;3.40;;;;;;;;;;5071509;28;20036;-62
2022/09/14 03:19:04;;;;;;;5.97;3.10;;;;;;;;;;5070806;28;20082;-62
2022/09/14 03:21:31;;;;;;;5.13;3.03;;;;;;;;;;5071253;28;20044;-62
2022/09/14 03:23:57;;;;;;;8.35;3.40;;;;;;;;;;5071458;28;20386;-62
2022/09/14 03:26:24;;;;;;;6.55;3.13;;;;;;;;;;5070942;28;20529;-62
2022/09/14 03:28:53;;;;;;;5.88;3.38;;;;;;;;;;5071092;28;20048;-62
2022/09/14 03:31:19;;;;;;;4.78;3.53;;;;;;;;;;5071234;28;20041;-62
2022/09/14 03:33:46;;;;;;;5.60;3.00;;;;;;;;;;5070803;28;20093;-62
2022/09/14 03:36:16;;;;;;;4.90;2.97;;;;;;;;;;5071234;28;20421;-62
2022/09/14 03:38:42;;;;;;;8.07;2.85;;;;;;;;;;5070601;28;20115;-62
2022/09/14 03:41:09;;;;;;;6.88;3.10;;;;;;;;;;5070613;28;20428;-62
2022/09/14 03:43:35;;;;;;;6.55;3.30;;;;;;;;;;5070731;28;20040;-62
2022/09/14 03:46:08;;;;;;;9.75;2.97;;;;;;;;;;5070797;28;20119;-62
2022/09/14 03:48:34;;;;;;;8.95;3.38;;;;;;;;;;5070409;28;20047;-62
2022/09/14 03:51:00;;;;;;;8.63;2.67;;;;;;;;;;5070863;28;20451;-61
2022/09/14 03:53:27;;;;;;;5.47;3.03;;;;;;;;;;5070968;28;20161;-62
2022/09/14 03:55:53;;;;;;;8.50;3.20;;;;;;;;;;5070535;28;20079;-62
2022/09/14 03:58:19;;;;;;;5.57;3.17;;;;;;;;;;5070379;28;20037;-62
2022/09/14 04:00:45;;;;;;;6.53;3.00;;;;;;;;;;5070907;28;20491;-61
2022/09/14 04:03:11;;;;;;;6.97;3.25;;;;;;;;;;5070299;28;20033;-62
2022/09/14 04:05:37;;;;;;;4.68;2.72;;;;;;;;;;5070876;28;20040;-62
2022/09/14 04:08:03;;;;;;;8.45;3.30;;;;;;;;;;5070637;28;20124;-61
2022/09/14 04:10:29;;;;;;;7.05;3.15;;;;;;;;;;5070129;28;20052;-62
2022/09/14 04:12:56;;;;;;;6.65;3.25;;;;;;;;;;5070918;28;20048;-62
2022/09/14 04:15:22;;;;;;;11.25;3.20;;;;;;;;;;5070693;28;20049;-62
2022/09/14 04:17:48;;;;;;;5.82;2.78;;;;;;;;;;5070152;28;20120;-62
2022/09/14 04:20:17;;;;;;;5.15;2.70;;;;;;;;;;5070666;28;20047;-62
2022/09/14 04:22:44;;;;;;;8.40;2.78;;;;;;;;;;5070709;28;20418;-62
2022/09/14 04:25:10;;;;;;;5.65;2.80;;;;;;;;;;5070166;28;20137;-62
2022/09/14 04:27:36;;;;;;;5.90;2.72;;;;;;;;;;5070239;28;20165;-62
2022/09/14 04:30:02;;;;;;;6.03;2.67;;;;;;;;;;5070348;28;20047;-62
2022/09/14 04:32:28;;;;;;;5.88;2.50;;;;;;;;;;5070193;28;20043;-62
2022/09/14 04:34:54;;;;;;;5.55;2.70;;;;;;;;;;5070422;28;20029;-62
2022/09/14 04:37:20;;;;;;;9.07;2.90;;;;;;;;;;5070376;28;20517;-62
2022/09/14 04:39:46;;;;;;;4.63;2.88;;;;;;;;;;5070006;28;20045;-62
2022/09/14 04:42:12;;;;;;;5.55;2.63;;;;;;;;;;5070438;28;20041;-62
2022/09/14 04:44:38;;;;;;;7.43;2.90;;;;;;;;;;5070273;28;20046;-62
2022/09/14 04:47:04;;;;;;;8.15;3.08;;;;;;;;;;5069970;28;20403;-62
2022/09/14 04:49:30;;;;;;;4.97;2.72;;;;;;;;;;5070023;28;20036;-62
2022/09/14 04:51:56;;;;;;;6.03;3.20;;;;;;;;;;5072290;28;20033;-62
2022/09/14 04:54:22;;;;;;;5.72;2.78;;;;;;;;;;5073728;28;20110;-62
2022/09/14 04:56:48;;;;;;;4.28;2.95;;;;;;;;;;5073615;28;20043;-62
2022/09/14 04:59:14;;;;;;;4.93;2.95;;;;;;;;;;5074161;28;20032;-62
2022/09/14 05:01:42;;;;;;;7.80;3.47;;;;;;;;;;5073351;28;20146;-62
2022/09/14 05:04:08;;;;;;;6.97;3.45;;;;;;;;;;5073421;28;20116;-62
2022/09/14 05:06:37;;;;;;;7.95;3.33;;;;;;;;;;5073462;28;20169;-62
2022/09/14 05:09:04;;;;;;;7.93;3.40;;;;;;;;;;5065457;28;20487;-62
2022/09/14 05:11:32;;;;;;;6.15;3.00;;;;;;;;;;5071576;28;20028;-62
2022/09/14 05:13:58;;;;;;;7.75;2.83;;;;;;;;;;5073355;28;20043;-62
2022/09/14 05:16:26;;;;;;;8.25;3.33;;;;;;;;;;5072866;28;20032;-62
2022/09/14 05:18:54;;;;;;;8.73;3.85;;;;;;;;;;5072385;28;20059;-62
2022/09/14 05:21:21;;;;;;;5.60;3.00;;;;;;;;;;5073489;28;20409;-62
2022/09/14 05:23:47;;;;;;;8.25;3.75;;;;;;;;;;5072694;28;20100;-62
2022/09/14 05:26:14;;;;;;;6.13;3.13;;;;;;;;;;5073215;28;20032;-62
2022/09/14 05:28:40;;;;;;;11.75;3.30;;;;;;;;;;5072715;28;20060;-62
2022/09/14 05:31:07;;;;;;;8.70;3.65;;;;;;;;;;5072976;28;20372;-62
2022/09/14 05:33:34;;;;;;;6.28;3.90;;;;;;;;;;5072736;28;20040;-62
2022/09/14 05:36:00;;;;;;;4.82;3.42;;;;;;;;;;5073350;28;20379;-62
2022/09/14 05:38:30;;;;;;;7.35;3.95;;;;;;;;;;5072232;28;20036;-62
2022/09/14 05:40:56;;;;;;;4.90;3.38;;;;;;;;;;5072493;28;20043;-62
2022/09/14 05:43:22;;;;;;;5.22;3.40;;;;;;;;;;5071874;28;20063;-62
2022/09/14 05:45:48;;;;;;;9.88;3.47;;;;;;;;;;5072091;28;20041;-62
2022/09/14 05:48:14;;;;;;;7.72;4.22;;;;;;;;;;5072700;28;20105;-62
2022/09/14 05:50:40;;;;;;;6.93;3.22;;;;;;;;;;5072528;28;20045;-62
2022/09/14 05:53:06;;;;;;;5.57;3.03;;;;;;;;;;5072629;28;20531;-62
2022/09/14 05:55:33;;;;;;;6.80;3.22;;;;;;;;;;5072419;28;20052;-62
2022/09/14 05:57:59;;;;;;;9.75;3.40;;;;;;;;;;5072687;28;20166;-61
2022/09/14 06:00:26;;;;;;;8.90;3.63;;;;;;;;;;5071806;28;20110;-62
2022/09/14 06:02:53;;;;;;;6.57;3.97;;;;;;;;;;5072400;28;20044;-62
2022/09/14 06:05:19;;;;;;;7.28;3.25;;;;;;;;;;5072131;28;20045;-62
2022/09/14 06:07:49;;;;;;;7.22;3.40;;;;;;;;;;5071764;28;20734;-62
2022/09/14 06:10:15;;;;;;;6.07;3.55;;;;;;;;;;5072407;28;20044;-62
2022/09/14 06:12:42;;;;;;;5.43;3.58;;;;;;;;;;5070975;28;20184;-62
2022/09/14 06:15:08;;;;;;;7.13;3.60;;;;;;;;;;5070800;28;20080;-62
2022/09/14 06:17:34;;;;;;;5.40;3.28;;;;;;;;;;5071039;28;20347;-62
2022/09/14 06:20:00;;;;;;;6.88;3.47;;;;;;;;;;5071419;28;20427;-62
2022/09/14 06:22:26;;;;;;;7.93;3.90;;;;;;;;;;5071148;28;20124;-62
2022/09/14 06:24:52;;;;;;;7.30;3.60;;;;;;;;;;5071745;28;20076;-62
2022/09/14 06:27:18;;;;;;;7.38;3.90;;;;;;;;;;5070723;28;20105;-62
2022/09/14 06:29:44;;;;;;;7.82;3.70;;;;;;;;;;5070253;28;20041;-62
2022/09/14 06:32:10;;;;;;;8.50;3.78;;;;;;;;;;5071441;28;20032;-62
2022/09/14 06:34:36;;;;;;;8.25;3.70;;;;;;;;;;5066004;28;20486;-62
2022/09/14 06:37:02;;;;;;;10.15;4.10;;;;;;;;;;5065169;28;20394;-62
2022/09/14 06:39:28;;;;;;;17.27;3.90;;;;;;;;;;5065067;28;20136;-62
2022/09/14 06:41:54;;;;;;;21.67;4.45;;;;;;;;;;5069456;28;20490;-62
2022/09/14 06:44:20;;;;;;;16.23;4.00;;;;;;;;;;5068246;28;20127;-62
2022/09/14 06:46:46;;;;;;;9.73;4.35;;;;;;;;;;5068603;28;20078;-62
2022/09/14 06:49:19;;;;;;;14.45;4.05;;;;;;;;;;5066976;28;20500;-62
2022/09/14 06:51:46;;;;;;;16.63;4.13;;;;;;;;;;5069494;28;20037;-63
2022/09/14 06:54:12;;;;;;;11.10;3.40;;;;;;;;;;5069648;28;20033;-63
2022/09/14 06:56:39;;;;;;;7.13;3.42;;;;;;;;;;5066662;28;20075;-63
2022/09/14 06:59:06;;;;;;;9.75;3.25;;;;;;;;;;5066074;28;20511;-63
2022/09/14 07:01:33;;;;;;;14.95;3.88;;;;;;;;;;5069767;28;20450;-63
2022/09/14 07:04:00;;;;;;;15.82;3.63;;;;;;;;;;5059232;28;20052;-63
2022/09/14 07:06:28;;;;;;;20.55;4.50;;;;;;;;;;5069259;28;20414;-63
2022/09/14 07:08:54;;;;;;;13.40;3.80;;;;;;;;;;5059671;28;20056;-63
2022/09/14 07:11:22;;;;;;;11.82;3.97;;;;;;;;;;5069007;28;20048;-62
2022/09/14 07:13:48;;;;;;;9.95;3.30;;;;;;;;;;5064804;28;20125;-62
2022/09/14 07:16:14;;;;;;;9.68;3.22;;;;;;;;;;5066936;28;20052;-62
2022/09/14 07:18:41;;;;;;;16.80;3.72;;;;;;;;;;5062804;28;20124;-62
2022/09/14 07:21:08;;;;;;;17.75;3.90;;;;;;;;;;5062990;28;20125;-63
2022/09/14 07:23:36;;;;;;;11.15;3.20;;;;;;;;;;5063193;28;20052;-62
2022/09/14 07:26:04;;;;;;;5.32;2.85;;;;;;;;;;5066549;28;20040;-63
2022/09/14 07:28:31;;;;;;;10.55;3.47;;;;;;;;;;5054266;28;20040;-63
2022/09/14 07:30:57;;;;;;;8.98;3.70;;;;;;;;;;5061166;28;20047;-64
2022/09/14 07:33:23;;;;;;;18.17;4.40;;;;;;;;;;5063212;28;20422;-64
2022/09/14 07:35:49;;;;;;;14.57;3.45;;;;;;;;;;5068196;28;20186;-64
2022/09/14 07:38:16;;;;;;;6.28;3.05;;;;;;;;;;5059338;28;20546;-64
2022/09/14 07:40:42;;;;;;;7.20;2.78;;;;;;;;;;5058275;28;20051;-64
2022/09/14 07:43:08;;;;;;;14.00;2.97;;;;;;;;;;5066116;28;20483;-64
2022/09/14 07:45:35;;;;;;;15.70;3.03;;;;;;;;;;5063620;28;20119;-64
2022/09/14 07:48:01;;;;;;;6.57;2.40;;;;;;;;;;5067835;28;20048;-64
2022/09/14 07:50:27;;;;;;;5.57;2.22;;;;;;;;;;5060707;28;20595;-64
2022/09/14 07:52:53;;;;;;;8.95;2.97;;;;;;;;;;5063665;28;20174;-64
2022/09/14 07:55:19;;;;;;;6.90;2.67;;;;;;;;;;5066265;28;20123;-64
2022/09/14 07:57:46;;;;;;;6.60;2.60;;;;;;;;;;5065966;28;20037;-64
2022/09/14 08:00:13;;;;;;;8.32;2.67;;;;;;;;;;5058861;28;20041;-64
2022/09/14 08:02:39;;;;;;;8.30;2.72;;;;;;;;;;5067191;28;20089;-64
2022/09/14 08:05:06;;;;;;;8.20;2.42;;;;;;;;;;5066854;28;20099;-64
2022/09/14 08:07:32;;;;;;;7.05;2.30;;;;;;;;;;5064757;28;20040;-64
2022/09/14 08:09:58;;;;;;;8.68;2.63;;;;;;;;;;5065802;28;20059;-64
2022/09/14 08:12:24;;;;;;;14.30;2.78;;;;;;;;;;5066836;28;20409;-64
2022/09/14 08:14:52;;;;;;;6.00;2.90;;;;;;;;;;5055798;28;20578;-64
2022/09/14 08:17:20;;;;;;;4.18;2.50;;;;;;;;;;5064959;28;20040;-64
2022/09/14 08:19:47;;;;;;;8.00;2.50;;;;;;;;;;5067720;28;20055;-64
2022/09/14 08:22:13;;;;;;;10.05;2.50;;;;;;;;;;5066641;28;20162;-64
2022/09/14 08:24:39;;;;;;;6.85;2.05;;;;;;;;;;5058052;28;20041;-66
2022/09/14 08:27:05;;;;;;;12.23;2.00;;;;;;;;;;5056195;28;20630;-62
2022/09/14 08:29:31;;;;;;;13.32;3.58;;;;;;;;;;5065946;28;20041;-63
2022/09/14 08:31:57;;;;;;;11.00;2.70;;;;;;;;;;5066527;28;20482;-63
2022/09/14 08:34:23;;;;;;;6.85;2.33;;;;;;;;;;5063282;28;20212;-64
2022/09/14 08:36:50;;;;;;;7.68;2.08;;;;;;;;;;5056709;28;20037;-65
2022/09/14 08:39:16;;;;;;;8.10;2.28;;;;;;;;;;5066720;28;20044;-64
2022/09/14 08:41:42;;;;;;;6.25;1.77;;;;;;;;;;5064844;28;20052;-62
2022/09/14 08:44:17;;;;;;;5.03;1.52;;;;;;;;;;5060508;28;20403;-62
2022/09/14 08:46:45;;;;;;;7.85;1.77;;;;;;;;;;5068872;28;20062;-62
2022/09/14 08:49:21;;;;;;;5.78;1.80;;;;;;;;;;5068530;28;20398;-62
2022/09/14 08:51:48;;;;;;;9.30;1.58;;;;;;;;;;5065629;28;20040;-62
2022/09/14 08:54:14;;;;;;;9.45;1.80;;;;;;;;;;5069085;28;20032;-61
2022/09/14 08:56:42;;;;;;;11.30;1.35;;;;;;;;;;5068641;28;20089;-62
2022/09/14 08:59:24;;;;;;;4.30;0.90;;;;;;;;;;5065565;28;20067;-62
2022/09/14 09:01:56;;;;;;;4.35;0.60;;;;;;;;;;5063532;28;20037;-63
2022/09/14 09:04:22;;;;;;;;;;;;;;;;;;5063560;28;20706;-62
2022/09/14 09:07:07;;;;;;;3.17;0.93;;;;;;;;;;5065354;28;19924;-62
2022/09/14 09:09:33;;;;;;;4.25;0.80;;;;;;;;;;5055975;28;20059;-62
2022/09/14 09:12:00;;;;;;;5.10;0.80;;;;;;;;;;5067305;28;20135;-63
2022/09/14 09:14:40;;;;;;;6.97;0.88;;;;;;;;;;5060409;28;20045;-62
2022/09/14 09:17:32;;;;;;;4.85;1.00;;;;;;;;;;5061779;28;20037;-63
2022/09/14 09:20:03;;;;;;;6.00;1.17;;;;;;;;;;5043523;28;20093;-63
2022/09/14 09:22:31;;;;;;;7.32;1.35;;;;;;;;;;5061407;28;20067;-61
2022/09/14 09:24:58;;;;;;;17.98;1.45;;;;;;;;;;5061368;28;20422;-63
2022/09/14 09:27:26;;;;;;;5.32;0.90;;;;;;;;;;5063727;28;20143;-62
2022/09/14 09:29:52;;;;;;;7.50;0.95;;;;;;;;;;5063031;28;20053;-63
2022/09/14 09:32:22;;;;;;;8.93;0.90;;;;;;;;;;5064542;28;20155;-62
2022/09/14 09:34:49;;;;;;;4.68;0.68;;;;;;;;;;5065615;28;20029;-63
2022/09/14 09:37:16;;;;;;;4.68;0.70;;;;;;;;;;5062220;28;20047;-64
2022/09/14 09:39:43;;;;;;;3.03;0.70;;;;;;;;;;5065764;28;20479;-64
2022/09/14 09:42:14;;;;;;;5.68;0.70;;;;;;;;;;5065279;28;20098;-63
2022/09/14 09:44:55;;;;;;;6.15;1.00;;;;;;;;;;5059959;28;20041;-62
2022/09/14 09:47:32;;;;;;;5.78;1.00;;;;;;;;;;5060938;28;20043;-62
2022/09/14 09:50:04;;;;;;;3.75;0.60;;;;;;;;;;5055710;28;20040;-62
2022/09/14 09:52:30;;;;;;;6.60;1.13;;;;;;;;;;5065708;28;20052;-62
2022/09/14 09:54:57;;;;;;;4.68;0.88;;;;;;;;;;5059887;28;20120;-62
2022/09/14 09:57:34;;;;;;;4.35;0.70;;;;;;;;;;5057940;28;20037;-61
2022/09/14 10:00:18;;;;;;;5.45;0.65;;;;;;;;;;5057080;28;20044;-61
2022/09/14 10:02:45;;;;;;;4.70;0.90;;;;;;;;;;5065488;28;20068;-61
2022/09/14 10:05:11;;;;;;;3.58;0.65;;;;;;;;;;5063994;28;20032;-62
2022/09/14 10:07:48;;;;;;;4.13;0.70;;;;;;;;;;5063185;28;20048;-61
2022/09/14 10:10:15;;;;;;;4.88;0.70;;;;;;;;;;5057834;28;20499;-63
2022/09/14 10:12:51;;;;;;;6.72;0.70;;;;;;;;;;5067180;28;20171;-63
2022/09/14 10:15:20;;;;;;;2.75;0.63;;;;;;;;;;5061971;28;20157;-63
2022/09/14 10:17:55;;;;;;;5.30;0.85;;;;;;;;;;5061369;28;20029;-62
2022/09/14 10:20:22;;;;;;;5.55;1.00;;;;;;;;;;5063732;28;20056;-61
2022/09/14 10:22:49;;;;;;;9.98;1.17;;;;;;;;;;5065431;28;20036;-63
2022/09/14 10:25:18;;;;;;;6.03;0.98;;;;;;;;;;5061583;28;20033;-62
2022/09/14 10:27:49;;;;;;;4.85;1.13;;;;;;;;;;5060766;28;20060;-63
2022/09/14 10:30:19;;;;;;;5.10;0.98;;;;;;;;;;5061598;28;20139;-60
2022/09/14 10:32:58;;;;;;;3.95;1.10;;;;;;;;;;5066504;28;20449;-62
2022/09/14 10:35:28;;;;;;;4.70;0.90;;;;;;;;;;5064754;28;20454;-61
2022/09/14 10:37:55;;;;;;;4.55;0.85;;;;;;;;;;5064778;28;20032;-61
2022/09/14 10:40:27;;;;;;;4.60;0.70;;;;;;;;;;5061516;28;20051;-63
2022/09/14 10:42:57;;;;;;;5.10;0.70;;;;;;;;;;5067515;28;20056;-63
2022/09/14 10:45:34;;;;;;;2.90;0.60;;;;;;;;;;5067633;28;20183;-63
2022/09/14 10:48:19;;;;;;;5.15;0.90;;;;;;;;;;5062317;28;20049;-62
2022/09/14 10:51:03;;;;;;;6.57;0.88;;;;;;;;;;5066337;28;20040;-62
2022/09/14 10:53:35;;;;;;;4.05;0.70;;;;;;;;;;5069642;28;20040;-61
2022/09/14 10:56:08;;;;;;;3.05;0.73;;;;;;;;;;5063432;28;20036;-60
2022/09/14 10:58:39;;;;;;;2.25;0.70;;;;;;;;;;5065102;28;20567;-62
2022/09/14 11:01:15;;;;;;;4.07;0.80;;;;;;;;;;5063704;28;20048;-61
2022/09/14 11:03:44;;;;;;;4.43;1.20;;;;;;;;;;5060194;28;20100;-61
2022/09/14 11:06:23;;;;;;;4.32;0.85;;;;;;;;;;5061420;28;20047;-60
2022/09/14 11:08:53;;;;;;;3.97;0.70;;;;;;;;;;5061335;28;20064;-61
2022/09/14 11:11:31;;;;;;;8.55;0.80;;;;;;;;;;5062800;28;20428;-62
2022/09/14 11:14:09;;;;;;;8.32;1.10;;;;;;;;;;5061148;28;20047;-61
2022/09/14 11:17:01;;;;;;;6.50;0.70;;;;;;;;;;5059100;28;20056;-62
2022/09/14 11:19:51;;;;;;;7.10;0.90;;;;;;;;;;5061123;28;20368;-61
2022/09/14 11:22:29;;;;;;;6.53;1.00;;;;;;;;;;5064652;28;20057;-62
2022/09/14 11:25:07;;;;;;;8.60;1.05;;;;;;;;;;5065995;28;20047;-60
2022/09/14 11:27:40;;;;;;;8.70;1.05;;;;;;;;;;5065910;28;20036;-62
2022/09/14 11:30:09;;;;;;;5.55;0.80;;;;;;;;;;5063957;28;20032;-61
2022/09/14 11:32:41;;;;;;;3.70;0.82;;;;;;;;;;5067996;28;20567;-62
2022/09/14 11:35:07;;;;;;;;;;;;;;;;;;5067427;28;20140;-64
2022/09/14 11:37:36;;;;;;;4.88;0.60;;;;;;;;;;5068312;28;20006;-62
2022/09/14 11:40:15;;;;;;;3.30;0.98;;;;;;;;;;5062621;28;20041;-60
2022/09/14 11:43:04;;;;;;;9.23;0.90;;;;;;;;;;5068113;28;20726;-61
2022/09/14 11:45:51;;;;;;;3.50;0.90;;;;;;;;;;5058737;28;20048;-62
2022/09/14 11:48:37;;;;;;;5.57;0.75;;;;;;;;;;5064347;28;20044;-62
2022/09/14 11:51:07;;;;;;;5.07;0.90;;;;;;;;;;5067602;28;20075;-63
2022/09/14 11:53:34;;;;;;;8.45;1.20;;;;;;;;;;5070441;28;20671;-62
2022/09/14 11:56:00;;;;;;;6.10;0.85;;;;;;;;;;5069005;28;20044;-63
2022/09/14 11:58:30;;;;;;;1.55;0.60;;;;;;;;;;5069164;28;20083;-62
2022/09/14 12:01:02;;;;;;;4.50;0.82;;;;;;;;;;5067770;28;20391;-62
2022/09/14 12:03:45;;;;;;;1.27;0.60;;;;;;;;;;5067693;28;20086;-62
2022/09/14 12:06:29;;;;;;;1.52;0.50;;;;;;;;;;5069260;28;20032;-62
2022/09/14 12:09:22;;;;;;;1.88;0.50;;;;;;;;;;5065834;28;20044;-62
2022/09/14 12:11:54;;;;;;;4.97;1.00;;;;;;;;;;5068223;28;20050;-62
2022/09/14 12:14:23;;;;;;;3.40;0.93;;;;;;;;;;5068592;28;20085;-62
2022/09/14 12:17:06;;;;;;;2.80;0.60;;;;;;;;;;5068330;28;20155;-63
2022/09/14 12:19:33;;;;;;;5.75;0.70;;;;;;;;;;5069304;28;20127;-63
2022/09/14 12:22:18;;;;;;;6.28;1.35;;;;;;;;;;5069743;28;20079;-62
2022/09/14 12:24:45;;;;;;;3.83;0.70;;;;;;;;;;5069062;28;20048;-62
2022/09/14 12:27:19;;;;;;;4.38;0.68;;;;;;;;;;5069134;28;20056;-62
2022/09/14 12:29:45;;;;;;;4.38;0.80;;;;;;;;;;5069940;28;20052;-62
2022/09/14 12:32:38;;;;;;;5.93;0.98;;;;;;;;;;5068881;28;20036;-62
2022/09/14 12:35:22;;;;;;;3.85;0.50;;;;;;;;;;5069131;28;20040;-62
2022/09/14 12:37:49;;;;;;;3.35;0.77;;;;;;;;;;5070225;28;20036;-62
2022/09/14 12:40:21;;;;;;;6.25;0.75;;;;;;;;;;5068318;28;20420;-62
2022/09/14 12:42:47;;;;;;;4.28;1.13;;;;;;;;;;5070211;28;20387;-63
2022/09/14 12:45:32;;;;;;;5.47;0.80;;;;;;;;;;5068710;28;20127;-63
2022/09/14 12:47:58;;;;;;;4.60;0.82;;;;;;;;;;5068644;28;20036;-63
2022/09/14 12:50:28;;;;;;;3.47;0.80;;;;;;;;;;5069202;28;20041;-62
2022/09/14 12:53:00;;;;;;;5.88;0.90;;;;;;;;;;5068463;28;20047;-62
2022/09/14 12:55:26;;;;;;;;;;;;;;;;;;5068866;28;20037;-63
2022/09/14 12:57:59;;;;;;;3.20;0.77;;;;;;;;;;5068908;28;19920;-62
2022/09/14 13:00:26;;;;;;;6.38;1.13;;;;;;;;;;5069396;28;20044;-63
2022/09/14 13:03:12;;;;;;;3.22;1.00;;;;;;;;;;5068463;28;20436;-62
2022/09/14 13:05:42;;;;;;;3.83;0.70;;;;;;;;;;5069106;28;20084;-62
2022/09/14 13:08:09;;;;;;;3.70;0.77;;;;;;;;;;5069038;28;20044;-63
2022/09/14 13:10:38;;;;;;;5.68;0.93;;;;;;;;;;5068226;28;20049;-63
2022/09/14 13:13:23;;;;;;;6.95;0.95;;;;;;;;;;5070906;28;20119;-62
2022/09/14 13:15:51;;;;;;;2.58;1.02;;;;;;;;;;5071895;28;20049;-63
2022/09/14 13:18:17;;;;;;;6.22;0.85;;;;;;;;;;5072273;28;20043;-62
2022/09/14 13:20:52;;;;;;;3.55;0.80;;;;;;;;;;5072218;28;20094;-62
2022/09/14 13:23:27;;;;;;;7.82;1.23;;;;;;;;;;5072890;28;20066;-62
2022/09/14 13:25:53;;;;;;;8.13;1.20;;;;;;;;;;5072177;28;20047;-63
2022/09/14 13:28:20;;;;;;;3.33;0.70;;;;;;;;;;5068333;28;20041;-62
2022/09/14 13:30:54;;;;;;;2.25;0.88;;;;;;;;;;5072393;28;20040;-62
2022/09/14 13:33:20;;;;;;;5.95;1.13;;;;;;;;;;5071889;28;20049;-62
2022/09/14 13:35:48;;;;;;;7.93;0.82;;;;;;;;;;5071231;28;20090;-62
2022/09/14 13:38:24;;;;;;;4.68;0.70;;;;;;;;;;5072321;28;20128;-62
2022/09/14 13:40:52;;;;;;;3.67;0.93;;;;;;;;;;5061419;28;20044;-62
2022/09/14 13:43:19;;;;;;;2.85;0.70;;;;;;;;;;5072857;28;20044;-62
2022/09/14 13:45:45;;;;;;;6.05;0.90;;;;;;;;;;5072148;28;20051;-63
2022/09/14 13:48:13;;;;;;;3.63;0.75;;;;;;;;;;5072130;28;20756;-62
2022/09/14 13:50:41;;;;;;;9.15;1.00;;;;;;;;;;5072280;28;20044;-62
2022/09/14 13:53:27;;;;;;;4.80;0.90;;;;;;;;;;5071388;28;20120;-63
2022/09/14 13:55:53;;;;;;;4.63;1.02;;;;;;;;;;5071625;28;20040;-62
2022/09/14 13:58:19;;;;;;;4.03;1.10;;;;;;;;;;5071529;28;20115;-62
2022/09/14 14:00:56;;;;;;;7.10;0.90;;;;;;;;;;5071230;28;20560;-62
2022/09/14 14:03:28;;;;;;;3.08;0.80;;;;;;;;;;5070281;28;20436;-62
2022/09/14 14:05:54;;;;;;;4.75;0.90;;;;;;;;;;5071764;28;20079;-62
2022/09/14 14:08:37;;;;;;;3.50;0.70;;;;;;;;;;5070671;28;20092;-62
2022/09/14 14:11:07;;;;;;;3.28;0.70;;;;;;;;;;5071685;28;20090;-62
2022/09/14 14:13:34;;;;;;;5.85;1.23;;;;;;;;;;5071027;28;20704;-62
2022/09/14 14:16:17;;;;;;;3.42;0.70;;;;;;;;;;5071105;28;20443;-62
2022/09/14 14:18:49;;;;;;;3.67;0.90;;;;;;;;;;5070688;28;20041;-62
2022/09/14 14:21:21;;;;;;;9.00;1.25;;;;;;;;;;5071533;28;20051;-62
2022/09/14 14:23:48;;;;;;;3.55;0.82;;;;;;;;;;5071607;28;20467;-62
2022/09/14 14:26:16;;;;;;;3.67;1.17;;;;;;;;;;5071944;28;20033;-62
2022/09/14 14:28:42;;;;;;;3.40;0.65;;;;;;;;;;5071614;28;20040;-62
2022/09/14 14:31:16;;;;;;;3.67;0.90;;;;;;;;;;5071741;28;20083;-62
2022/09/14 14:33:46;;;;;;;6.82;0.80;;;;;;;;;;5071776;28;20040;-62
2022/09/14 14:36:13;;;;;;;4.10;1.15;;;;;;;;;;5071439;28;20119;-62
2022/09/14 14:38:41;;;;;;;5.25;1.30;;;;;;;;;;5071848;28;20062;-62
2022/09/14 14:41:18;;;;;;;8.43;1.60;;;;;;;;;;5072284;28;20044;-62
2022/09/14 14:43:45;;;;;;;4.78;1.27;;;;;;;;;;5072228;28;20093;-62
2022/09/14 14:46:12;;;;;;;6.25;1.02;;;;;;;;;;5070522;28;20044;-62
2022/09/14 14:48:38;;;;;;;3.97;0.70;;;;;;;;;;5071865;28;20040;-62
2022/09/14 14:51:05;;;;;;;4.57;1.00;;;;;;;;;;5071927;28;20500;-62
2022/09/14 14:53:31;;;;;;;6.43;1.00;;;;;;;;;;5071178;28;20047;-62
2022/09/14 14:55:57;;;;;;;7.53;1.08;;;;;;;;;;5071786;28;20039;-62
2022/09/14 14:58:23;;;;;;;2.65;0.80;;;;;;;;;;5071384;28;20067;-61